Time;durP1;ratioP1;P1;durP2;ratioP2;P2;SDS_P1;SDS_P2;PMS_P1;PMS_P2;Temp;Humidity;BMP_temperature;BMP_pressure;BME280_temperature;BME280_humidity;BME280_pressure;Samples;Min_cycle;Max_cycle;Signal;HPM_P1;HPM_P2
2023/03/07 00:01:42;;;;;;;;;;;11.40;99.90;;;;;;5014201;28;19915;-67
2023/03/07 00:04:08;;;;;;;;;;;11.40;99.90;;;;;;5014049;28;20267;-67
2023/03/07 00:06:33;;;;;;;;;;;11.40;99.90;;;;;;5013376;28;19961;-72
2023/03/07 00:09:00;;;;;;;;;;;11.50;99.90;;;;;;5013952;28;19940;-68
2023/03/07 00:11:26;;;;;;;;;;;11.40;99.90;;;;;;5014412;28;20360;-68
2023/03/07 00:13:52;;;;;;;;;;;11.40;99.90;;;;;;5014343;28;19910;-68
2023/03/07 00:16:19;;;;;;;;;;;11.30;99.90;;;;;;5014396;28;19964;-67
2023/03/07 00:18:45;;;;;;;;;;;11.30;99.90;;;;;;5013856;28;20059;-67
2023/03/07 00:21:12;;;;;;;;;;;11.30;99.90;;;;;;5013748;28;19963;-70
2023/03/07 00:23:39;;;;;;;;;;;11.20;99.90;;;;;;5013825;28;19916;-66
2023/03/07 00:26:09;;;;;;;;;;;11.10;99.90;;;;;;5014162;28;20363;-68
2023/03/07 00:28:35;;;;;;;;;;;11.10;99.90;;;;;;5013663;28;19956;-68
2023/03/07 00:31:02;;;;;;;;;;;11.00;99.90;;;;;;5013999;28;19909;-68
2023/03/07 00:33:28;;;;;;;;;;;11.10;99.90;;;;;;5013697;28;19909;-67
2023/03/07 00:35:55;;;;;;;;;;;11.10;99.90;;;;;;5013635;28;19909;-69
2023/03/07 00:38:21;;;;;;;;;;;11.00;99.90;;;;;;5013376;28;19909;-68
2023/03/07 00:40:46;;;;;;;;;;;11.00;99.90;;;;;;5013810;28;19971;-69
2023/03/07 00:43:12;;;;;;;;;;;11.00;99.90;;;;;;5013809;28;20371;-67
2023/03/07 00:45:38;;;;;;;;;;;11.10;99.90;;;;;;5013610;28;19910;-68
2023/03/07 00:48:04;;;;;;;;;;;11.00;99.90;;;;;;5013283;28;20324;-67
2023/03/07 00:50:29;;;;;;;;;;;11.00;99.90;;;;;;5013206;28;19917;-71
2023/03/07 00:52:55;;;;;;;;;;;11.00;99.90;;;;;;5013203;28;19910;-68
2023/03/07 00:55:20;;;;;;;;;;;10.90;99.90;;;;;;5013217;28;19941;-69
2023/03/07 00:57:46;;;;;;;;;;;10.90;99.90;;;;;;5013300;28;19909;-66
2023/03/07 01:00:12;;;;;;;;;;;10.90;99.90;;;;;;5013964;28;19909;-69
2023/03/07 01:02:37;;;;;;;;;;;10.80;99.90;;;;;;5013259;28;19910;-68
2023/03/07 01:05:03;;;;;;;;;;;10.70;99.90;;;;;;5013520;28;19909;-69
2023/03/07 01:07:29;;;;;;;;;;;10.60;99.90;;;;;;5012848;28;19956;-67
2023/03/07 01:09:55;;;;;;;;;;;10.60;99.90;;;;;;5012923;28;19909;-67
2023/03/07 01:12:20;;;;;;;;;;;10.50;99.90;;;;;;5013093;28;19933;-68
2023/03/07 01:14:49;;;;;;;;;;;10.60;99.90;;;;;;5012841;28;20122;-68
2023/03/07 01:17:15;;;;;;;;;;;10.50;99.90;;;;;;5013289;28;19909;-68
2023/03/07 01:19:40;;;;;;;;;;;10.40;99.90;;;;;;5011543;28;20256;-68
2023/03/07 01:22:06;;;;;;;;;;;10.40;99.90;;;;;;5012838;28;20067;-67
2023/03/07 01:24:32;;;;;;;;;;;10.30;99.90;;;;;;5013236;28;19972;-67
2023/03/07 01:26:57;;;;;;;;;;;10.30;99.90;;;;;;5013022;28;19921;-68
2023/03/07 01:29:23;;;;;;;;;;;10.20;99.90;;;;;;5013300;28;19910;-69
2023/03/07 01:31:49;;;;;;;;;;;10.20;99.90;;;;;;5013541;28;20291;-68
2023/03/07 01:34:14;;;;;;;;;;;10.30;99.90;;;;;;5013459;28;19917;-69
2023/03/07 01:36:40;;;;;;;;;;;10.30;99.90;;;;;;5013522;28;19963;-68
2023/03/07 01:39:13;;;;;;;;;;;10.30;99.90;;;;;;5013538;28;19909;-66
2023/03/07 01:41:39;;;;;;;;;;;10.40;99.90;;;;;;5013457;28;19917;-68
2023/03/07 01:44:19;;;;;;;;;;;10.40;99.90;;;;;;5013509;28;19929;-69
2023/03/07 01:46:48;;;;;;;;;;;10.40;99.90;;;;;;5013403;28;19913;-70
2023/03/07 01:49:18;;;;;;;;;;;10.40;99.90;;;;;;5014294;28;20042;-67
2023/03/07 01:51:47;;;;;;;;;;;10.30;99.90;;;;;;5017318;28;20005;-68
2023/03/07 01:54:15;;;;;;;;;;;10.20;99.90;;;;;;5019634;28;19910;-68
2023/03/07 01:56:42;;;;;;;;;;;10.20;99.90;;;;;;5019152;28;19916;-68
2023/03/07 01:59:07;;;;;;;;;;;10.20;99.90;;;;;;5019202;28;19924;-68
2023/03/07 02:01:33;;;;;;;;;;;10.30;99.90;;;;;;5019392;28;19913;-68
2023/03/07 02:04:05;;;;;;;;;;;10.40;99.90;;;;;;5019502;28;19910;-68
2023/03/07 02:06:34;;;;;;;;;;;10.40;99.90;;;;;;5017910;28;19913;-69
2023/03/07 02:09:00;;;;;;;;;;;10.40;99.90;;;;;;5018412;28;20291;-68
2023/03/07 02:11:26;;;;;;;;;;;10.50;99.90;;;;;;5018902;28;19920;-67
2023/03/07 02:13:52;;;;;;;;;;;10.50;99.90;;;;;;5019124;28;19910;-68
2023/03/07 02:16:18;;;;;;;;;;;10.40;99.90;;;;;;5019216;28;20008;-68
2023/03/07 02:18:44;;;;;;;;;;;10.30;99.90;;;;;;5018824;28;19941;-68
2023/03/07 02:21:31;;;;;;;;;;;10.40;99.90;;;;;;5019884;28;19948;-68
2023/03/07 02:24:15;;;;;;;;;;;10.30;99.90;;;;;;5019837;28;20256;-68
2023/03/07 02:26:48;;;;;;;;;;;10.30;99.90;;;;;;5019079;28;20008;-68
2023/03/07 02:29:13;;;;;;;;;;;10.40;99.90;;;;;;5018834;28;19916;-67
2023/03/07 02:31:40;;;;;;;;;;;10.50;99.90;;;;;;5022458;28;19909;-67
2023/03/07 02:34:18;;;;;;;;;;;10.40;99.90;;;;;;5023502;28;19940;-68
2023/03/07 02:36:43;;;;;;;;;;;10.40;99.90;;;;;;5021981;28;19944;-68
2023/03/07 02:39:09;;;;;;;;;;;10.30;99.90;;;;;;5022964;28;19918;-68
2023/03/07 02:41:37;;;;;;;;;;;10.30;99.90;;;;;;5021506;28;19917;-68
2023/03/07 02:44:02;;;;;;;;;;;10.20;99.90;;;;;;5020234;28;19910;-68
2023/03/07 02:46:28;;;;;;;;;;;10.20;99.90;;;;;;5015860;28;19920;-66
2023/03/07 02:48:53;;;;;;;;;;;10.20;99.90;;;;;;5015965;28;19919;-68
2023/03/07 02:51:19;;;;;;;;;;;10.20;99.90;;;;;;5015422;28;19910;-68
2023/03/07 02:53:45;;;;;;;;;;;10.20;99.90;;;;;;5016370;28;19913;-68
2023/03/07 02:56:11;;;;;;;;;;;10.10;99.90;;;;;;5015353;28;19917;-69
2023/03/07 02:58:37;;;;;;;;;;;10.20;99.90;;;;;;5015441;28;20394;-68
2023/03/07 03:01:03;;;;;;;;;;;10.10;99.90;;;;;;5015446;28;19913;-74
2023/03/07 03:03:28;;;;;;;;;;;10.20;99.90;;;;;;5014622;28;19914;-68
2023/03/07 03:05:54;;;;;;;;;;;10.20;99.90;;;;;;5029567;28;20132;-68
2023/03/07 03:08:20;;;;;;;;;;;10.20;99.90;;;;;;5014929;28;20006;-69
2023/03/07 03:10:50;;;;;;;;;;;10.10;99.90;;;;;;5015700;28;20347;-68
2023/03/07 03:13:16;;;;;;;;;;;10.10;99.90;;;;;;5015390;28;19913;-69
2023/03/07 03:15:42;;;;;;;;;;;10.20;99.90;;;;;;5014756;28;20292;-68
2023/03/07 03:18:07;;;;;;;;;;;10.20;99.90;;;;;;5014905;28;19914;-68
2023/03/07 03:20:33;;;;;;;;;;;10.20;99.90;;;;;;5015066;28;19920;-68
2023/03/07 03:22:59;;;;;;;;;;;10.10;99.90;;;;;;5015317;28;20447;-68
2023/03/07 03:25:26;;;;;;;;;;;10.10;99.90;;;;;;5015402;28;19964;-68
2023/03/07 03:27:51;;;;;;;;;;;10.10;99.90;;;;;;5015401;28;19920;-69
2023/03/07 03:30:17;;;;;;;;;;;10.10;99.90;;;;;;5015618;28;19913;-68
2023/03/07 03:32:43;;;;;;;;;;;10.00;99.90;;;;;;5015214;28;19914;-68
2023/03/07 03:35:09;;;;;;;;;;;10.10;99.90;;;;;;5015197;28;19935;-68
2023/03/07 03:37:35;;;;;;;;;;;10.10;99.90;;;;;;5014927;28;20445;-68
2023/03/07 03:40:01;;;;;;;;;;;10.20;99.90;;;;;;5014481;28;19914;-68
2023/03/07 03:42:26;;;;;;;;;;;10.20;99.90;;;;;;5012761;28;20407;-67
2023/03/07 03:44:52;;;;;;;;;;;10.20;99.90;;;;;;5015076;28;19910;-68
2023/03/07 03:47:18;;;;;;;;;;;10.30;99.90;;;;;;5014367;28;19921;-68
2023/03/07 03:49:43;;;;;;;;;;;10.30;99.90;;;;;;5014928;28;20277;-68
2023/03/07 03:52:09;;;;;;;;;;;10.30;99.90;;;;;;5014328;28;20348;-67
2023/03/07 03:54:35;;;;;;;;;;;10.30;99.90;;;;;;5014432;28;20287;-67
2023/03/07 03:57:00;;;;;;;;;;;10.40;99.90;;;;;;5029067;28;19909;-69
2023/03/07 03:59:26;;;;;;;;;;;10.40;99.90;;;;;;5014244;28;19910;-66
2023/03/07 04:01:53;;;;;;;;;;;10.40;99.90;;;;;;5014273;28;20005;-68
2023/03/07 04:04:19;;;;;;;;;;;10.40;99.90;;;;;;5012687;28;19917;-68
2023/03/07 04:06:45;;;;;;;;;;;10.40;99.90;;;;;;5013772;28;19921;-66
2023/03/07 04:09:11;;;;;;;;;;;10.40;99.90;;;;;;5013937;28;19909;-67
2023/03/07 04:11:37;;;;;;;;;;;10.50;99.90;;;;;;5014397;28;19913;-69
2023/03/07 04:14:03;;;;;;;;;;;10.40;99.90;;;;;;5014193;28;19910;-72
2023/03/07 04:16:28;;;;;;;;;;;10.40;99.90;;;;;;5014253;28;19910;-68
2023/03/07 04:18:54;;;;;;;;;;;10.40;99.90;;;;;;5013839;28;20360;-70
2023/03/07 04:21:20;;;;;;;;;;;10.40;99.90;;;;;;5014909;28;19942;-67
2023/03/07 04:23:48;;;;;;;;;;;10.40;99.90;;;;;;5014117;28;19913;-68
2023/03/07 04:26:14;;;;;;;;;;;10.30;99.90;;;;;;5013907;28;20391;-68
2023/03/07 04:28:44;;;;;;;;;;;10.30;99.90;;;;;;5013545;28;19987;-66
2023/03/07 04:31:14;;;;;;;;;;;10.30;99.90;;;;;;5013577;28;19909;-67
2023/03/07 04:33:39;;;;;;;;;;;10.30;99.90;;;;;;5013773;28;19919;-69
2023/03/07 04:36:06;;;;;;;;;;;10.30;99.90;;;;;;5013703;28;19917;-68
2023/03/07 04:38:31;;;;;;;;;;;10.30;99.90;;;;;;5013555;28;19971;-68
2023/03/07 04:40:57;;;;;;;;;;;10.30;99.90;;;;;;5013630;28;19921;-69
2023/03/07 04:43:23;;;;;;;;;;;10.30;99.90;;;;;;5013861;28;19914;-69
2023/03/07 04:45:48;;;;;;;;;;;10.30;99.90;;;;;;5013250;28;20376;-67
2023/03/07 04:48:14;;;;;;;;;;;10.30;99.90;;;;;;5012162;28;20046;-70
2023/03/07 04:50:40;;;;;;;;;;;10.40;99.90;;;;;;5013547;28;19948;-69
2023/03/07 04:53:05;;;;;;;;;;;10.40;99.90;;;;;;5013577;28;19909;-69
2023/03/07 04:55:31;;;;;;;;;;;10.30;99.90;;;;;;5013506;28;19916;-70
2023/03/07 04:57:57;;;;;;;;;;;10.30;99.90;;;;;;5013134;28;20418;-70
2023/03/07 05:00:23;;;;;;;;;;;10.20;99.90;;;;;;5012681;28;19913;-69
2023/03/07 05:02:49;;;;;;;;;;;10.10;99.90;;;;;;5013479;28;19916;-70
2023/03/07 05:05:15;;;;;;;;;;;10.10;99.90;;;;;;5013483;28;19917;-69
2023/03/07 05:07:41;;;;;;;;;;;10.00;99.90;;;;;;5013129;28;20390;-70
2023/03/07 05:10:07;;;;;;;;;;;9.90;99.90;;;;;;5013464;28;19932;-69
2023/03/07 05:12:32;;;;;;;;;;;9.90;99.90;;;;;;5013945;28;19909;-70
2023/03/07 05:14:59;;;;;;;;;;;10.00;99.90;;;;;;5013706;28;19937;-70
2023/03/07 05:17:25;;;;;;;;;;;10.00;99.90;;;;;;5028714;28;20311;-69
2023/03/07 05:19:53;;;;;;;;;;;9.90;99.90;;;;;;5013466;28;19920;-70
2023/03/07 05:22:19;;;;;;;;;;;9.90;99.90;;;;;;5013621;28;19909;-69
2023/03/07 05:24:45;;;;;;;;;;;10.00;99.90;;;;;;5012114;28;19964;-70
2023/03/07 05:27:11;;;;;;;;;;;10.10;99.90;;;;;;5011753;28;20334;-70
2023/03/07 05:29:36;;;;;;;;;;;10.00;99.90;;;;;;5013350;28;19910;-69
2023/03/07 05:32:02;;;;;;;;;;;10.00;99.90;;;;;;5013780;28;19909;-69
2023/03/07 05:34:28;;;;;;;;;;;10.00;99.90;;;;;;5013251;28;19962;-69
2023/03/07 05:36:54;;;;;;;;;;;9.90;99.90;;;;;;5013562;28;20012;-69
2023/03/07 05:39:20;;;;;;;;;;;9.90;99.90;;;;;;5012752;28;19914;-69
2023/03/07 05:41:45;;;;;;;;;;;9.90;99.90;;;;;;5013123;28;19944;-69
2023/03/07 05:44:11;;;;;;;;;;;9.90;99.90;;;;;;5012928;28;19916;-70
2023/03/07 05:46:36;;;;;;;;;;;10.00;99.90;;;;;;5012964;28;20048;-69
2023/03/07 05:49:02;;;;;;;;;;;9.90;99.90;;;;;;5013003;28;20000;-69
2023/03/07 05:51:28;;;;;;;;;;;10.00;99.90;;;;;;5013335;28;19917;-70
2023/03/07 05:53:53;;;;;;;;;;;10.00;99.90;;;;;;5012818;28;19909;-69
2023/03/07 05:56:19;;;;;;;;;;;9.90;99.90;;;;;;5013076;28;19909;-70
2023/03/07 05:58:45;;;;;;;;;;;10.00;99.90;;;;;;5012495;28;20004;-69
2023/03/07 06:01:10;;;;;;;;;;;10.00;99.90;;;;;;5012291;28;19909;-70
2023/03/07 06:03:36;;;;;;;;;;;9.90;99.90;;;;;;5012245;28;20008;-70
2023/03/07 06:06:05;;;;;;;;;;;9.90;99.90;;;;;;5014638;28;19910;-69
2023/03/07 06:08:30;;;;;;;;;;;10.00;99.90;;;;;;5015802;28;20063;-70
2023/03/07 06:10:56;;;;;;;;;;;10.00;99.90;;;;;;5016513;28;20045;-70
2023/03/07 06:13:23;;;;;;;;;;;9.90;99.90;;;;;;5016047;28;19913;-70
2023/03/07 06:15:49;;;;;;;;;;;10.00;99.90;;;;;;5016303;28;19992;-70
2023/03/07 06:18:15;;;;;;;;;;;10.00;99.90;;;;;;5015720;28;19982;-70
2023/03/07 06:20:40;;;;;;;;;;;10.00;99.90;;;;;;5015746;28;19992;-71
2023/03/07 06:23:06;;;;;;;;;;;10.00;99.90;;;;;;5016220;28;19921;-70
2023/03/07 06:25:33;;;;;;;;;;;10.10;99.90;;;;;;5015802;28;19932;-70
2023/03/07 06:28:00;;;;;;;;;;;10.10;99.90;;;;;;5015595;28;20000;-70
2023/03/07 06:30:26;;;;;;;;;;;10.10;99.90;;;;;;5015976;28;19914;-69
2023/03/07 06:32:51;;;;;;;;;;;10.10;99.90;;;;;;5015881;28;19909;-70
2023/03/07 06:35:17;;;;;;;;;;;10.20;99.90;;;;;;5016568;28;19967;-70
2023/03/07 06:37:43;;;;;;;;;;;10.20;99.90;;;;;;5014566;28;19909;-70
2023/03/07 06:40:09;;;;;;;;;;;10.30;99.90;;;;;;5015920;28;19917;-69
2023/03/07 06:42:35;;;;;;;;;;;10.20;99.90;;;;;;5016114;28;20055;-70
2023/03/07 06:45:01;;;;;;;;;;;10.30;99.90;;;;;;5015626;28;19936;-68
2023/03/07 06:47:27;;;;;;;;;;;10.30;99.90;;;;;;5014098;28;19938;-69
2023/03/07 06:49:54;;;;;;;;;;;10.40;99.90;;;;;;5015449;28;19919;-70
2023/03/07 06:52:20;;;;;;;;;;;10.50;99.90;;;;;;5015790;28;19916;-70
2023/03/07 06:54:46;;;;;;;;;;;10.60;99.90;;;;;;5015964;28;19996;-70
2023/03/07 06:57:11;;;;;;;;;;;10.60;99.90;;;;;;5016361;28;19956;-70
2023/03/07 06:59:37;;;;;;;;;;;10.60;99.90;;;;;;5015567;28;20011;-70
2023/03/07 07:02:03;;;;;;;;;;;10.70;99.90;;;;;;5014164;28;19910;-70
2023/03/07 07:04:28;;;;;;;;;;;10.60;99.90;;;;;;5015462;28;19909;-69
2023/03/07 07:06:54;;;;;;;;;;;10.70;99.90;;;;;;5016143;28;20057;-69
2023/03/07 07:09:20;;;;;;;;;;;10.70;99.90;;;;;;5015357;28;19980;-70
2023/03/07 07:11:45;;;;;;;;;;;10.70;99.90;;;;;;5015394;28;19914;-70
2023/03/07 07:14:11;;;;;;;;;;;10.80;99.90;;;;;;5015197;28;19928;-70
2023/03/07 07:16:37;;;;;;;;;;;10.90;99.90;;;;;;5014439;28;20410;-69
2023/03/07 07:19:03;;;;;;;;;;;10.90;99.90;;;;;;5012971;28;19921;-69
2023/03/07 07:21:28;;;;;;;;;;;10.90;99.90;;;;;;5014412;28;20394;-70
2023/03/07 07:23:57;;;;;;;;;;;11.00;99.90;;;;;;5014250;28;19952;-69
2023/03/07 07:26:23;;;;;;;;;;;11.10;99.90;;;;;;5029498;28;19910;-69
2023/03/07 07:28:49;;;;;;;;;;;11.00;99.90;;;;;;5012927;28;19910;-69
2023/03/07 07:31:15;;;;;;;;;;;11.10;99.90;;;;;;5014547;28;19909;-69
2023/03/07 07:33:40;;;;;;;;;;;11.00;99.90;;;;;;5014754;28;19909;-70
2023/03/07 07:36:07;;;;;;;;;;;11.00;99.90;;;;;;5014640;28;20433;-70
2023/03/07 07:38:32;;;;;;;;;;;11.00;99.90;;;;;;5013013;28;19910;-71
2023/03/07 07:40:58;;;;;;;;;;;11.00;99.90;;;;;;5014748;28;19917;-69
2023/03/07 07:43:24;;;;;;;;;;;11.00;99.90;;;;;;5014962;28;20012;-70
2023/03/07 07:45:50;;;;;;;;;;;11.10;99.90;;;;;;5014773;28;19909;-70
2023/03/07 07:48:15;;;;;;;;;;;11.20;99.90;;;;;;5014839;28;19914;-70
2023/03/07 07:50:41;;;;;;;;;;;11.20;99.90;;;;;;5014936;28;19917;-71
2023/03/07 07:53:07;;;;;;;;;;;11.10;99.90;;;;;;5014690;28;19960;-70
2023/03/07 07:55:32;;;;;;;;;;;11.10;99.90;;;;;;5014937;28;19910;-70
2023/03/07 07:57:58;;;;;;;;;;;11.20;99.90;;;;;;5014691;28;19917;-70
2023/03/07 08:00:24;;;;;;;;;;;11.20;99.90;;;;;;5014688;28;20001;-71
2023/03/07 08:02:50;;;;;;;;;;;11.20;99.90;;;;;;5014679;28;20355;-70
2023/03/07 08:05:19;;;;;;;;;;;11.30;99.90;;;;;;5014391;28;19916;-69
2023/03/07 08:07:45;;;;;;;;;;;11.30;99.90;;;;;;5013909;28;19914;-70
2023/03/07 08:10:14;;;;;;;;;;;11.40;99.90;;;;;;5014090;28;19910;-70
2023/03/07 08:12:43;;;;;;;;;;;11.40;99.90;;;;;;5013106;28;19913;-71
2023/03/07 08:15:10;;;;;;;;;;;11.40;99.90;;;;;;5014696;28;19978;-70
2023/03/07 08:17:35;;;;;;;;;;;11.50;99.90;;;;;;5014604;28;19909;-70
2023/03/07 08:20:07;;;;;;;;;;;11.70;99.90;;;;;;5014718;28;19916;-70
2023/03/07 08:22:33;;;;;;;;;;;11.90;99.90;;;;;;5029653;28;19909;-70
2023/03/07 08:24:58;;;;;;;;;;;12.00;99.90;;;;;;5014809;28;20000;-70
2023/03/07 08:27:24;;;;;;;;;;;12.10;99.90;;;;;;5013701;28;20363;-70
2023/03/07 08:29:50;;;;;;;;;;;12.20;99.90;;;;;;5013974;28;20338;-70
2023/03/07 08:32:16;;;;;;;;;;;12.10;99.90;;;;;;5014381;28;19919;-70
2023/03/07 08:34:41;;;;;;;;;;;12.30;99.90;;;;;;5014396;28;19939;-70
2023/03/07 08:37:07;;;;;;;;;;;12.30;99.90;;;;;;5014412;28;19921;-70
2023/03/07 08:39:33;;;;;;;;;;;12.30;99.90;;;;;;5014102;28;19909;-70
2023/03/07 08:41:59;;;;;;;;;;;12.40;99.90;;;;;;5014250;28;20008;-70
2023/03/07 08:44:25;;;;;;;;;;;12.40;99.90;;;;;;5013706;28;19913;-70
2023/03/07 08:46:51;;;;;;;;;;;12.50;99.90;;;;;;5013776;28;19913;-70
2023/03/07 08:49:16;;;;;;;;;;;12.50;99.90;;;;;;5013926;28;19910;-71
2023/03/07 08:51:42;;;;;;;;;;;12.40;99.90;;;;;;5014327;28;20088;-71
2023/03/07 08:54:07;;;;;;;;;;;12.40;99.90;;;;;;5012548;28;20391;-70
2023/03/07 08:56:33;;;;;;;;;;;12.40;99.90;;;;;;5014062;28;19914;-70
2023/03/07 08:58:59;;;;;;;;;;;12.40;99.90;;;;;;5013528;28;19910;-71
2023/03/07 09:01:24;;;;;;;;;;;12.50;99.90;;;;;;5013609;28;19920;-70
2023/03/07 09:03:50;;;;;;;;;;;12.60;99.90;;;;;;5013785;28;19955;-70
2023/03/07 09:06:17;;;;;;;;;;;12.40;99.90;;;;;;5013288;28;19913;-70
2023/03/07 09:08:42;;;;;;;;;;;12.40;99.90;;;;;;5013120;28;19917;-70
2023/03/07 09:11:08;;;;;;;;;;;12.50;99.90;;;;;;5013150;28;20434;-70
2023/03/07 09:13:34;;;;;;;;;;;12.50;99.90;;;;;;5013153;28;20063;-70
2023/03/07 09:16:03;;;;;;;;;;;12.60;99.90;;;;;;5013398;28;19909;-70
2023/03/07 09:18:28;;;;;;;;;;;12.50;99.90;;;;;;5013298;28;19915;-70
2023/03/07 09:20:54;;;;;;;;;;;12.50;99.90;;;;;;5014078;28;19913;-70
2023/03/07 09:23:20;;;;;;;;;;;12.60;99.90;;;;;;5013999;28;19910;-71
2023/03/07 09:25:45;;;;;;;;;;;12.60;99.90;;;;;;5013747;28;19978;-70
2023/03/07 09:28:11;;;;;;;;;;;12.50;99.90;;;;;;5013181;28;19913;-70
2023/03/07 09:30:36;;;;;;;;;;;12.60;99.90;;;;;;5011862;28;20024;-70
2023/03/07 09:33:03;;;;;;;;;;;12.50;99.90;;;;;;5013636;28;19916;-71
2023/03/07 09:35:28;;;;;;;;;;;12.50;99.90;;;;;;5013530;28;19909;-71
2023/03/07 09:37:54;;;;;;;;;;;12.50;99.90;;;;;;5013469;28;19955;-70
2023/03/07 09:40:23;;;;;;;;;;;12.60;99.90;;;;;;5016660;28;20041;-70
2023/03/07 09:43:09;;;;;;;;;;;12.60;99.90;;;;;;5017611;28;19910;-70
2023/03/07 09:45:44;;;;;;;;;;;12.60;99.90;;;;;;5016689;28;19917;-70
2023/03/07 09:48:15;;;;;;;;;;;12.60;99.90;;;;;;5017057;28;20020;-70
2023/03/07 09:51:00;;;;;;;;;;;12.60;99.90;;;;;;5017004;28;20395;-70
2023/03/07 09:53:40;;;;;;;;;;;12.60;99.90;;;;;;5017269;28;20382;-70
2023/03/07 09:56:10;;;;;;;;;;;12.70;99.90;;;;;;5017269;28;20287;-70
2023/03/07 09:58:37;;;;;;;;;;;12.70;99.90;;;;;;5017628;28;19909;-70
2023/03/07 10:01:06;;;;;;;;;;;12.70;99.90;;;;;;5017270;28;19910;-70
2023/03/07 10:03:32;;;;;;;;;;;12.80;99.90;;;;;;5020562;28;19920;-70
2023/03/07 10:06:06;;;;;;;;;;;12.80;99.90;;;;;;5021284;28;19968;-70
2023/03/07 10:08:32;;;;;;;;;;;12.80;99.90;;;;;;5020378;28;19918;-70
2023/03/07 10:11:07;;;;;;;;;;;12.80;99.90;;;;;;5021099;28;19910;-69
2023/03/07 10:13:41;;;;;;;;;;;12.80;99.90;;;;;;5019360;28;20016;-69
2023/03/07 10:16:27;;;;;;;;;;;12.90;99.90;;;;;;5016018;28;19945;-70
2023/03/07 10:19:11;;;;;;;;;;;12.80;99.90;;;;;;5005125;28;20437;-69
2023/03/07 10:21:39;;;;;;;;;;;12.90;99.90;;;;;;5016927;28;19909;-69
2023/03/07 10:24:23;;;;;;;;;;;12.80;99.90;;;;;;5015439;28;19916;-72
2023/03/07 10:26:59;;;;;;;;;;;12.90;99.90;;;;;;5018425;28;19914;-69
2023/03/07 10:29:27;;;;;;;;;;;12.90;99.90;;;;;;5019728;28;19909;-69
2023/03/07 10:31:55;;;;;;;;;;;12.90;99.90;;;;;;5020414;28;19909;-68
2023/03/07 10:34:20;;;;;;;;;;;12.90;99.90;;;;;;5020689;28;20008;-69
2023/03/07 10:36:48;;;;;;;;;;;12.80;99.90;;;;;;5018714;28;19964;-69
2023/03/07 10:39:45;;;;;;;;;;;12.80;99.90;;;;;;5019461;28;19909;-69
2023/03/07 10:42:12;;;;;;;;;;;12.80;99.90;;;;;;5005353;28;20078;-70
2023/03/07 10:44:38;;;;;;;;;;;12.90;99.90;;;;;;5016484;28;19945;-70
2023/03/07 10:47:04;;;;;;;;;;;12.90;99.90;;;;;;5016383;28;19989;-69
2023/03/07 10:49:42;;;;;;;;;;;12.90;99.90;;;;;;5016231;28;19909;-69
2023/03/07 10:52:11;;;;;;;;;;;13.00;99.90;;;;;;5015448;28;19921;-68
2023/03/07 10:54:37;;;;;;;;;;;13.00;99.90;;;;;;5016030;28;19914;-69
2023/03/07 10:57:08;;;;;;;;;;;13.00;99.90;;;;;;5015915;28;19913;-69
2023/03/07 10:59:35;;;;;;;;;;;13.00;99.90;;;;;;5014067;28;19964;-70
2023/03/07 11:02:02;;;;;;;;;;;12.90;99.90;;;;;;5014389;28;19910;-69
2023/03/07 11:04:29;;;;;;;;;;;13.00;99.90;;;;;;5015666;28;19967;-69
2023/03/07 11:06:59;;;;;;;;;;;13.10;99.90;;;;;;5014650;28;20389;-69
2023/03/07 11:09:29;;;;;;;;;;;13.10;99.90;;;;;;5015521;28;19909;-68
2023/03/07 11:11:59;;;;;;;;;;;13.00;99.90;;;;;;5014502;28;20264;-70
2023/03/07 11:14:26;;;;;;;;;;;13.10;99.90;;;;;;5015545;28;19910;-69
2023/03/07 11:16:57;;;;;;;;;;;13.10;99.90;;;;;;5015826;28;20000;-69
2023/03/07 11:19:35;;;;;;;;;;;13.10;99.90;;;;;;5015248;28;19955;-69
2023/03/07 11:22:03;;;;;;;;;;;13.10;99.90;;;;;;5015345;28;19917;-70
2023/03/07 11:24:30;;;;;;;;;;;13.10;99.90;;;;;;5015032;28;19944;-69
2023/03/07 11:26:56;;;;;;;;;;;13.20;99.90;;;;;;5015205;28;20039;-68
2023/03/07 11:29:23;;;;;;;;;;;13.20;99.90;;;;;;5014581;28;19916;-69
2023/03/07 11:31:52;;;;;;;;;;;13.20;99.90;;;;;;5015284;28;19917;-69
2023/03/07 11:34:24;;;;;;;;;;;13.30;99.90;;;;;;5015047;28;19914;-69
2023/03/07 11:36:54;;;;;;;;;;;13.40;99.90;;;;;;5015313;28;19914;-72
2023/03/07 11:39:38;;;;;;;;;;;13.40;99.90;;;;;;5014516;28;20294;-75
2023/03/07 11:42:11;;;;;;;;;;;13.40;99.90;;;;;;5015292;28;19924;-69
2023/03/07 11:44:56;;;;;;;;;;;13.40;99.90;;;;;;5015236;28;20012;-68
2023/03/07 11:47:37;;;;;;;;;;;13.60;99.90;;;;;;5014848;28;20334;-69
2023/03/07 11:50:25;;;;;;;;;;;13.70;99.90;;;;;;5013981;28;19910;-70
2023/03/07 11:53:02;;;;;;;;;;;13.80;99.90;;;;;;5014530;28;19909;-69
2023/03/07 11:55:28;;;;;;;;;;;13.80;99.90;;;;;;5015112;28;20004;-72
2023/03/07 11:57:57;;;;;;;;;;;13.70;99.90;;;;;;5014800;28;19953;-69
2023/03/07 12:00:41;;;;;;;;;;;13.80;99.90;;;;;;5013529;28;20008;-69
2023/03/07 12:03:21;;;;;;;;;;;13.90;99.90;;;;;;5013772;28;19909;-69
2023/03/07 12:05:53;;;;;;;;;;;13.80;99.90;;;;;;5013981;28;19940;-69
2023/03/07 12:08:25;;;;;;;;;;;13.90;99.90;;;;;;5014204;28;19914;-69
2023/03/07 12:11:16;;;;;;;;;;;13.80;99.90;;;;;;5015745;28;19916;-70
2023/03/07 12:13:45;;;;;;;;;;;13.60;99.90;;;;;;5015264;28;19944;-69
2023/03/07 12:16:21;;;;;;;;;;;13.60;99.90;;;;;;5014105;28;19956;-69
2023/03/07 12:18:59;;;;;;;;;;;13.60;99.90;;;;;;5014830;28;20012;-69
2023/03/07 12:21:27;;;;;;;;;;;13.60;99.90;;;;;;5014071;28;20402;-68
2023/03/07 12:24:03;;;;;;;;;;;13.60;99.90;;;;;;5080318;28;19912;-70
2023/03/07 12:26:43;;;;;;;;;;;13.60;99.90;;;;;;5070309;28;19912;-69
2023/03/07 12:29:35;;;;;;;;;;;13.70;99.90;;;;;;5070023;28;19915;-70
2023/03/07 12:32:04;;;;;;;;;;;13.70;99.90;;;;;;5068883;28;19931;-70
2023/03/07 12:34:33;;;;;;;;;;;13.70;99.90;;;;;;5070392;28;20358;-72
2023/03/07 12:37:06;;;;;;;;;;;13.60;99.90;;;;;;5070460;28;19951;-70
2023/03/07 12:39:52;;;;;;;;;;;13.60;99.90;;;;;;5069819;28;19912;-70
2023/03/07 12:42:28;;;;;;;;;;;13.60;99.90;;;;;;5069203;28;19976;-70
2023/03/07 12:45:14;;;;;;;;;;;13.70;99.90;;;;;;5069830;28;19928;-71
2023/03/07 12:47:46;;;;;;;;;;;13.70;99.90;;;;;;5069544;28;20351;-70
2023/03/07 12:50:15;;;;;;;;;;;13.80;99.90;;;;;;5069814;28;19919;-70
2023/03/07 12:52:46;;;;;;;;;;;13.70;99.90;;;;;;5069864;28;19970;-70
2023/03/07 12:55:18;;;;;;;;;;;13.70;99.90;;;;;;5068578;28;19909;-69
2023/03/07 12:57:49;;;;;;;;;;;13.70;99.90;;;;;;5069254;28;19979;-70
2023/03/07 13:00:18;;;;;;;;;;;13.70;99.90;;;;;;5069662;28;19913;-69
2023/03/07 13:02:54;;;;;;;;;;;13.70;99.90;;;;;;5069391;28;19935;-69
2023/03/07 13:05:20;;;;;;;;;;;13.70;99.90;;;;;;5069179;28;19916;-70
2023/03/07 13:07:47;;;;;;;;;;;13.80;99.90;;;;;;5069187;28;19913;-69
2023/03/07 13:10:15;;;;;;;;;;;13.80;99.90;;;;;;5069700;28;19999;-71
2023/03/07 13:12:41;;;;;;;;;;;13.70;99.90;;;;;;5068715;28;19916;-69
2023/03/07 13:15:16;;;;;;;;;;;13.70;99.90;;;;;;5069123;28;19917;-70
2023/03/07 13:17:42;;;;;;;;;;;13.70;99.90;;;;;;5068444;28;19909;-70
2023/03/07 13:20:13;;;;;;;;;;;13.70;99.90;;;;;;5067683;28;20398;-69
2023/03/07 13:22:39;;;;;;;;;;;13.70;99.90;;;;;;5068425;28;19917;-70
2023/03/07 13:25:23;;;;;;;;;;;13.60;99.90;;;;;;5067414;28;19908;-70
2023/03/07 13:28:12;;;;;;;;;;;13.60;99.90;;;;;;5068905;28;19913;-69
2023/03/07 13:30:38;;;;;;;;;;;13.60;99.90;;;;;;5057814;28;19909;-69
2023/03/07 13:33:23;;;;;;;;;;;13.60;99.90;;;;;;5068899;28;19931;-72
2023/03/07 13:35:56;;;;;;;;;;;13.70;99.90;;;;;;5055709;28;19959;-70
2023/03/07 13:38:31;;;;;;;;;;;13.70;99.90;;;;;;5054012;28;19974;-69
2023/03/07 13:40:59;;;;;;;;;;;13.70;99.90;;;;;;5054861;28;19928;-75
2023/03/07 13:43:24;;;;;;;;;;;13.80;99.90;;;;;;5055063;28;20301;-69
2023/03/07 13:45:52;;;;;;;;;;;13.80;99.90;;;;;;5054761;28;19936;-70
2023/03/07 13:48:23;;;;;;;;;;;13.90;99.90;;;;;;5054582;28;19916;-70
2023/03/07 13:50:49;;;;;;;;;;;13.90;99.90;;;;;;5054869;28;20331;-69
2023/03/07 13:53:15;;;;;;;;;;;14.10;99.90;;;;;;5054956;28;19919;-69
2023/03/07 13:55:45;;;;;;;;;;;14.00;99.90;;;;;;5053570;28;19980;-69
2023/03/07 13:58:17;;;;;;;;;;;13.90;99.90;;;;;;5054683;28;19956;-69
2023/03/07 14:00:49;;;;;;;;;;;14.00;99.90;;;;;;5055181;28;20004;-69
2023/03/07 14:03:21;;;;;;;;;;;14.00;99.90;;;;;;5055547;28;19943;-72
2023/03/07 14:05:46;;;;;;;;;;;14.00;99.90;;;;;;5053522;28;19963;-71
2023/03/07 14:08:13;;;;;;;;;;;14.00;99.90;;;;;;5054694;28;19913;-69
2023/03/07 14:10:43;;;;;;;;;;;13.90;99.90;;;;;;5054755;28;19913;-69
2023/03/07 14:13:17;;;;;;;;;;;13.80;99.90;;;;;;5054421;28;19953;-69
2023/03/07 14:15:43;;;;;;;;;;;13.90;99.90;;;;;;5054806;28;20325;-69
2023/03/07 14:18:32;;;;;;;;;;;13.80;99.90;;;;;;5054636;28;19999;-70
2023/03/07 14:21:10;;;;;;;;;;;13.70;99.90;;;;;;5051231;28;19919;-69
2023/03/07 14:23:51;;;;;;;;;;;13.70;99.90;;;;;;5054288;28;20425;-70
2023/03/07 14:26:19;;;;;;;;;;;13.70;99.90;;;;;;5053556;28;20345;-69